createdAt,value
2023-02-14T00:01:20.665Z,58.55
2023-02-14T00:03:49.560Z,59.25
2023-02-14T00:06:16.758Z,56.30
2023-02-14T00:08:44.920Z,55.65
2023-02-14T00:11:14.031Z,55.50
2023-02-14T00:14:01.435Z,52.35
2023-02-14T00:16:28.556Z,57.15
2023-02-14T00:19:04.511Z,54.45
2023-02-14T00:21:38.068Z,55.25
2023-02-14T00:24:12.056Z,51.47
2023-02-14T00:26:39.560Z,55.08
2023-02-14T00:29:24.098Z,56.45
2023-02-14T00:31:51.866Z,55.90
2023-02-14T00:34:19.812Z,56.33
2023-02-14T00:36:47.371Z,56.40
2023-02-14T00:39:17.415Z,55.22
2023-02-14T00:41:45.027Z,55.60
2023-02-14T00:44:13.944Z,58.72
2023-02-14T00:46:41.874Z,54.13
2023-02-14T00:49:09.519Z,53.15
2023-02-14T00:51:38.952Z,55.55
2023-02-14T00:54:06.264Z,54.97
2023-02-14T00:56:33.361Z,53.17
2023-02-14T00:59:02.485Z,53.00
2023-02-14T01:01:29.797Z,55.17
2023-02-14T01:03:59.054Z,53.92
2023-02-14T01:06:26.335Z,51.95
2023-02-14T01:08:53.507Z,53.95
2023-02-14T01:11:23.088Z,52.80
2023-02-14T01:13:52.296Z,53.40
2023-02-14T01:16:22.019Z,52.97
2023-02-14T01:18:49.937Z,52.45
2023-02-14T01:21:27.360Z,50.00
2023-02-14T01:24:00.586Z,55.30
2023-02-14T01:26:28.680Z,54.17
2023-02-14T01:28:57.134Z,52.35
2023-02-14T01:31:30.085Z,52.50
2023-02-14T01:33:58.944Z,51.58
2023-02-14T01:36:39.858Z,51.10
2023-02-14T01:39:14.048Z,50.03
2023-02-14T01:44:19.414Z,48.65
2023-02-14T01:46:46.971Z,49.42
2023-02-14T01:49:20.436Z,52.08
2023-02-14T01:52:03.034Z,52.40
2023-02-14T01:54:34.797Z,50.03
2023-02-14T01:57:07.224Z,49.65
2023-02-14T01:59:41.311Z,49.10
2023-02-14T02:02:08.823Z,51.60
2023-02-14T02:04:41.662Z,49.35
2023-02-14T02:07:19.575Z,51.63
2023-02-14T02:09:53.481Z,50.35
2023-02-14T02:12:24.466Z,51.80
2023-02-14T02:14:56.065Z,48.47
2023-02-14T02:17:45.084Z,50.78
2023-02-14T02:20:49.083Z,50.08
2023-02-14T02:23:59.860Z,49.28
2023-02-14T02:26:57.611Z,50.90
2023-02-14T02:29:51.643Z,48.33
2023-02-14T02:32:54.419Z,51.57
2023-02-14T02:35:34.514Z,52.63
2023-02-14T02:38:45.687Z,52.00
2023-02-14T02:41:22.088Z,52.75
2023-02-14T02:44:41.962Z,50.33
2023-02-14T02:47:26.705Z,52.95
2023-02-14T02:50:32.905Z,54.90
2023-02-14T02:53:18.828Z,58.30
2023-02-14T02:56:45.034Z,55.10
2023-02-14T02:59:33.431Z,53.03
2023-02-14T03:02:22.214Z,53.30
2023-02-14T03:05:03.381Z,53.05
2023-02-14T03:07:37.254Z,53.70
2023-02-14T03:10:08.396Z,59.67
2023-02-14T03:12:35.407Z,59.42
2023-02-14T03:15:34.976Z,66.00
2023-02-14T03:18:59.759Z,69.60
2023-02-14T03:21:45.337Z,70.47
2023-02-14T03:24:47.561Z,69.72
2023-02-14T03:27:39.388Z,72.15
2023-02-14T03:30:25.107Z,71.18
2023-02-14T03:33:08.010Z,76.60
2023-02-14T03:36:06.138Z,71.78
2023-02-14T03:39:03.046Z,72.15
2023-02-14T03:41:37.798Z,73.20
2023-02-14T03:44:11.378Z,71.50
2023-02-14T03:46:50.426Z,71.72
2023-02-14T03:49:23.905Z,71.97
2023-02-14T03:51:55.066Z,71.93
2023-02-14T03:54:26.114Z,67.47
2023-02-14T03:57:05.369Z,68.78
2023-02-14T03:59:32.342Z,73.88
2023-02-14T04:02:36.038Z,72.70
2023-02-14T04:05:12.559Z,71.60
2023-02-14T04:08:05.623Z,68.78
2023-02-14T04:10:32.860Z,71.50
2023-02-14T04:12:59.956Z,67.82
2023-02-14T04:15:27.067Z,68.32
2023-02-14T04:18:12.754Z,68.57
2023-02-14T04:20:39.827Z,68.63
2023-02-14T04:23:07.051Z,68.40
2023-02-14T04:25:34.042Z,68.15
2023-02-14T04:28:01.091Z,72.03
2023-02-14T04:30:28.203Z,69.30
2023-02-14T04:32:55.276Z,71.53
2023-02-14T04:35:22.262Z,70.20
2023-02-14T04:37:52.111Z,72.05
2023-02-14T04:40:19.424Z,67.90
2023-02-14T04:42:46.995Z,68.95
2023-02-14T04:45:15.445Z,70.00
2023-02-14T04:47:42.732Z,69.30
2023-02-14T04:50:10.735Z,69.78
2023-02-14T04:52:38.269Z,67.63
2023-02-14T04:55:06.272Z,69.28
2023-02-14T04:57:33.561Z,69.25
2023-02-14T05:00:01.863Z,64.80
2023-02-14T05:02:29.025Z,64.75
2023-02-14T05:04:56.096Z,66.88
2023-02-14T05:07:23.055Z,64.50
2023-02-14T05:09:50.124Z,62.72
2023-02-14T05:12:17.245Z,62.58
2023-02-14T05:14:44.293Z,63.47
2023-02-14T05:17:11.651Z,67.00
2023-02-14T05:19:38.638Z,65.28
2023-02-14T05:22:05.672Z,64.28
2023-02-14T05:24:32.697Z,64.25
2023-02-14T05:26:59.867Z,65.75
2023-02-14T05:29:27.026Z,66.53
2023-02-14T05:31:54.717Z,67.13
2023-02-14T05:34:22.191Z,65.50
2023-02-14T05:36:49.209Z,68.45
2023-02-14T05:39:16.203Z,66.90
2023-02-14T05:41:43.264Z,65.18
2023-02-14T05:44:10.337Z,65.88
2023-02-14T05:46:37.863Z,66.97
2023-02-14T05:49:05.085Z,65.63
2023-02-14T05:51:32.344Z,69.50
2023-02-14T05:54:01.215Z,68.88
2023-02-14T05:56:28.538Z,71.88
2023-02-14T05:58:56.007Z,72.80
2023-02-14T06:01:23.447Z,66.72
2023-02-14T06:03:53.562Z,64.88
2023-02-14T06:06:20.834Z,67.43
2023-02-14T06:08:49.285Z,66.20
2023-02-14T06:11:16.337Z,66.30
2023-02-14T06:13:43.708Z,66.32
2023-02-14T06:16:11.535Z,63.22
2023-02-14T06:18:39.215Z,61.70
2023-02-14T06:21:07.554Z,61.30
2023-02-14T06:23:34.738Z,62.65
2023-02-14T06:26:01.982Z,63.72
2023-02-14T06:28:29.106Z,63.55
2023-02-14T06:30:56.539Z,66.53
2023-02-14T06:33:23.972Z,65.90
2023-02-14T06:35:54.551Z,64.13
2023-02-14T06:38:21.921Z,64.35
2023-02-14T06:40:49.026Z,63.25
2023-02-14T06:43:16.220Z,65.65
2023-02-14T06:45:43.911Z,65.68
2023-02-14T06:48:11.250Z,64.40
2023-02-14T06:50:38.594Z,64.05
2023-02-14T06:53:06.299Z,65.03
2023-02-14T06:55:33.418Z,63.03
2023-02-14T06:58:00.899Z,66.35
2023-02-14T07:00:28.343Z,63.30
2023-02-14T07:02:58.627Z,65.18
2023-02-14T07:05:25.826Z,62.85
2023-02-14T07:07:53.078Z,62.40
2023-02-14T07:10:20.511Z,61.30
2023-02-14T07:12:47.772Z,65.38
2023-02-14T07:15:15.158Z,64.57
2023-02-14T07:17:42.855Z,61.30
2023-02-14T07:20:14.269Z,63.92
2023-02-14T07:22:41.354Z,65.68
2023-02-14T07:25:08.851Z,68.57
2023-02-14T07:27:36.186Z,64.03
2023-02-14T07:30:05.812Z,62.50
2023-02-14T07:32:33.028Z,65.18
2023-02-14T07:35:00.414Z,63.78
2023-02-14T07:37:28.071Z,60.80
2023-02-14T07:39:55.533Z,59.45
2023-02-14T07:42:22.906Z,61.85
2023-02-14T07:44:49.964Z,61.35
2023-02-14T07:47:18.699Z,59.22
2023-02-14T07:49:45.883Z,64.72
2023-02-14T07:52:12.982Z,66.47
2023-02-14T07:54:42.133Z,61.97
2023-02-14T07:57:09.308Z,59.50
2023-02-14T07:59:36.582Z,60.30
2023-02-14T08:02:04.008Z,59.22
2023-02-14T08:04:33.747Z,59.63
2023-02-14T08:07:01.156Z,62.90
2023-02-14T08:09:28.183Z,53.15
2023-02-14T08:12:16.600Z,54.80
2023-02-14T08:14:44.929Z,57.33
2023-02-14T08:17:13.485Z,55.25
2023-02-14T08:19:41.421Z,53.78
2023-02-14T08:22:08.837Z,51.78
2023-02-14T08:24:35.998Z,52.25
2023-02-14T08:27:03.385Z,52.97
2023-02-14T08:29:30.746Z,56.85
2023-02-14T08:32:00.473Z,53.13
2023-02-14T08:34:27.666Z,49.50
2023-02-14T08:36:55.163Z,50.65
2023-02-14T08:39:22.488Z,49.65
2023-02-14T08:41:49.588Z,50.78
2023-02-14T08:44:16.692Z,49.72
2023-02-14T08:46:44.070Z,48.65
2023-02-14T08:49:13.023Z,49.28
2023-02-14T08:51:40.464Z,47.78
2023-02-14T08:54:07.931Z,47.38
2023-02-14T08:56:35.400Z,46.83
2023-02-14T08:59:02.842Z,44.85
2023-02-14T09:01:30.629Z,45.88
2023-02-14T09:03:58.489Z,47.40
2023-02-14T09:06:26.298Z,48.97
2023-02-14T09:08:57.534Z,46.83
2023-02-14T09:11:26.771Z,45.72
2023-02-14T09:13:55.012Z,45.13
2023-02-14T09:16:24.117Z,46.55
2023-02-14T09:18:53.309Z,46.53
2023-02-14T09:21:26.560Z,48.80
2023-02-14T09:23:54.818Z,48.13
2023-02-14T09:26:21.992Z,46.05
2023-02-14T09:28:49.011Z,47.90
2023-02-14T09:31:20.040Z,49.20
2023-02-14T09:34:08.024Z,49.40
2023-02-14T09:36:35.077Z,48.92
2023-02-14T09:39:02.417Z,45.97
2023-02-14T09:41:29.752Z,49.28
2023-02-14T09:44:17.382Z,48.33
2023-02-14T09:46:52.606Z,49.78
2023-02-14T09:49:34.739Z,47.55
2023-02-14T09:52:04.964Z,48.15
2023-02-14T09:54:35.323Z,48.33
2023-02-14T09:57:28.951Z,47.75
2023-02-14T10:00:25.309Z,48.30
2023-02-14T10:03:08.332Z,47.17
2023-02-14T10:05:57.425Z,46.83
2023-02-14T10:09:17.613Z,49.25
2023-02-14T10:11:46.939Z,47.97
2023-02-14T10:14:26.345Z,50.95
2023-02-14T10:17:22.654Z,49.70
2023-02-14T10:20:00.030Z,47.88
2023-02-14T10:23:02.330Z,44.40
2023-02-14T10:25:42.162Z,47.08
2023-02-14T10:28:16.787Z,49.60
2023-02-14T10:31:02.357Z,47.45
2023-02-14T10:33:33.887Z,44.28
2023-02-14T10:36:10.249Z,46.00
2023-02-14T10:39:04.051Z,43.58
2023-02-14T10:42:17.682Z,43.63
2023-02-14T10:45:00.260Z,42.08
2023-02-14T10:47:45.169Z,44.80
2023-02-14T10:50:38.895Z,43.85
2023-02-14T10:53:29.639Z,42.35
2023-02-14T11:01:55.985Z,40.35
2023-02-14T11:04:25.403Z,42.42
2023-02-14T11:06:53.045Z,43.60
2023-02-14T11:09:21.004Z,41.08
2023-02-14T11:11:54.003Z,44.72
2023-02-14T11:14:32.763Z,42.55
2023-02-14T11:17:27.789Z,44.92
2023-02-14T11:20:27.923Z,49.70
2023-02-14T11:22:55.174Z,45.15
2023-02-14T11:25:29.174Z,45.70
2023-02-14T11:28:06.231Z,46.55
2023-02-14T11:30:45.673Z,42.67
2023-02-14T11:33:30.521Z,42.80
2023-02-14T11:35:58.336Z,39.35
2023-02-14T11:38:38.394Z,42.20
2023-02-14T11:41:10.751Z,41.67
2023-02-14T11:43:49.269Z,41.70
2023-02-14T11:46:28.253Z,41.22
2023-02-14T11:49:09.908Z,40.25
2023-02-14T11:51:43.490Z,41.83
2023-02-14T11:54:30.959Z,42.00
2023-02-14T11:57:12.154Z,40.40
2023-02-14T11:59:48.255Z,37.85
2023-02-14T12:02:39.744Z,36.72
2023-02-14T12:05:45.344Z,41.67
2023-02-14T12:10:43.790Z,35.08
2023-02-14T12:13:10.780Z,34.13
2023-02-14T12:15:43.578Z,37.72
2023-02-14T12:18:35.059Z,38.17
2023-02-14T12:21:54.289Z,34.80
2023-02-14T12:24:36.768Z,35.03
2023-02-14T12:27:20.149Z,36.13
2023-02-14T12:30:18.369Z,37.58
2023-02-14T12:32:53.957Z,35.42
2023-02-14T12:36:02.899Z,37.13
2023-02-14T12:38:48.809Z,37.50
2023-02-14T12:41:40.624Z,38.60
2023-02-14T12:45:00.857Z,34.58
2023-02-14T12:47:55.495Z,33.55
2023-02-14T12:50:55.499Z,34.08
2023-02-14T12:53:42.514Z,34.40
2023-02-14T12:56:18.728Z,35.28
2023-02-14T12:59:12.858Z,35.50
2023-02-14T13:01:43.170Z,37.22
2023-02-14T13:04:53.271Z,36.97
2023-02-14T13:07:55.800Z,34.70
2023-02-14T13:11:04.787Z,34.00
2023-02-14T13:13:43.987Z,36.88
2023-02-14T13:16:48.329Z,38.58
2023-02-14T13:19:47.371Z,37.40
2023-02-14T13:22:20.383Z,39.38
2023-02-14T13:24:57.847Z,41.40
2023-02-14T13:27:30.214Z,39.05
2023-02-14T13:30:27.828Z,38.40
2023-02-14T13:33:01.271Z,40.58
2023-02-14T13:35:30.253Z,40.97
2023-02-14T13:38:13.225Z,38.45
2023-02-14T13:40:41.559Z,42.30
2023-02-14T13:43:08.867Z,40.47
2023-02-14T13:45:37.522Z,39.95
2023-02-14T13:48:18.618Z,39.45
2023-02-14T13:51:10.351Z,41.20
2023-02-14T13:53:51.506Z,38.78
2023-02-14T13:56:18.422Z,40.22
2023-02-14T13:58:52.365Z,39.17
2023-02-14T14:01:50.288Z,39.53
2023-02-14T14:04:26.816Z,40.17
2023-02-14T14:07:00.781Z,37.97
2023-02-14T14:09:43.766Z,39.42
2023-02-14T14:12:29.264Z,40.47
2023-02-14T14:15:08.288Z,39.25
2023-02-14T14:17:46.072Z,39.17
2023-02-14T14:20:16.268Z,39.88
2023-02-14T14:22:49.849Z,38.78
2023-02-14T14:25:39.140Z,39.65
2023-02-14T14:28:20.411Z,39.08
2023-02-14T14:30:48.207Z,38.80
2023-02-14T14:33:34.293Z,36.72
2023-02-14T14:36:07.945Z,39.60
2023-02-14T14:38:49.344Z,38.42
2023-02-14T14:41:17.406Z,39.88
2023-02-14T14:43:44.821Z,37.63
2023-02-14T14:46:14.629Z,38.65
2023-02-14T14:48:51.819Z,40.15
2023-02-14T14:51:36.041Z,41.38
2023-02-14T14:54:15.031Z,39.45
2023-02-14T14:56:56.805Z,39.95
2023-02-14T14:59:35.139Z,38.75
2023-02-14T15:02:04.344Z,38.78
2023-02-14T15:04:35.336Z,41.30
2023-02-14T15:07:33.250Z,40.33
2023-02-14T15:10:01.448Z,39.85
2023-02-14T15:13:02.415Z,40.22
2023-02-14T15:15:30.718Z,39.60
2023-02-14T15:17:58.017Z,42.05
2023-02-14T15:20:25.730Z,41.10
2023-02-14T15:22:53.979Z,39.90
2023-02-14T15:25:24.995Z,42.60
2023-02-14T15:27:52.590Z,40.17
2023-02-14T15:30:19.632Z,41.28
2023-02-14T15:32:49.516Z,38.95
2023-02-14T15:35:23.336Z,40.13
2023-02-14T15:37:51.001Z,39.65
2023-02-14T15:40:28.968Z,38.35
2023-02-14T15:42:57.521Z,39.42
2023-02-14T15:45:28.070Z,36.92
2023-02-14T15:48:03.668Z,40.78
2023-02-14T15:50:55.242Z,40.08
2023-02-14T15:53:34.719Z,39.40
2023-02-14T15:56:09.714Z,41.38
2023-02-14T15:58:38.986Z,38.65
2023-02-14T16:01:07.786Z,41.58
2023-02-14T16:03:40.504Z,40.60
2023-02-14T16:06:29.490Z,40.80
2023-02-14T16:08:59.389Z,39.42
2023-02-14T16:11:37.151Z,42.10
2023-02-14T16:14:32.363Z,37.50
2023-02-14T16:17:12.718Z,39.83
2023-02-14T16:19:45.858Z,39.30
2023-02-14T16:22:31.955Z,36.78
2023-02-14T16:24:59.899Z,36.80
2023-02-14T16:27:27.560Z,38.15
2023-02-14T16:29:54.839Z,38.28
2023-02-14T16:32:24.503Z,40.95
2023-02-14T16:34:51.926Z,36.70
2023-02-14T16:37:33.621Z,36.13
2023-02-14T16:40:02.402Z,36.13
2023-02-14T16:42:30.134Z,34.30
2023-02-14T16:44:58.338Z,39.83
2023-02-14T16:47:27.886Z,35.75
2023-02-14T16:49:55.289Z,37.80
2023-02-14T16:52:26.778Z,36.30
2023-02-14T16:54:54.055Z,37.45
2023-02-14T16:57:28.213Z,43.85
2023-02-14T17:02:28.258Z,37.90
2023-02-14T17:04:56.032Z,36.72
2023-02-14T17:07:23.572Z,38.08
2023-02-14T17:09:57.116Z,38.17
2023-02-14T17:12:30.913Z,36.22
2023-02-14T17:15:06.050Z,35.47
2023-02-14T17:17:35.877Z,37.33
2023-02-14T17:20:06.301Z,37.05
2023-02-14T17:22:34.517Z,38.20
2023-02-14T17:25:01.521Z,39.00
2023-02-14T17:27:28.665Z,38.88
2023-02-14T17:29:55.694Z,39.63
2023-02-14T17:32:22.853Z,40.55
2023-02-14T17:34:49.872Z,42.35
2023-02-14T17:37:19.042Z,40.53
2023-02-14T17:39:46.187Z,41.50
2023-02-14T17:42:13.267Z,45.13
2023-02-14T17:44:40.441Z,40.80
2023-02-14T17:47:07.790Z,40.78
2023-02-14T17:49:35.027Z,39.15
2023-02-14T17:52:02.088Z,39.38
2023-02-14T17:54:29.102Z,39.80
2023-02-14T17:56:56.066Z,44.22
2023-02-14T17:59:24.352Z,41.97
2023-02-14T18:01:51.501Z,40.10
2023-02-14T18:04:19.072Z,39.70
2023-02-14T18:06:46.106Z,42.92
2023-02-14T18:09:14.206Z,40.90
2023-02-14T18:11:42.334Z,42.58
2023-02-14T18:14:09.728Z,40.60
2023-02-14T18:16:39.118Z,41.22
2023-02-14T18:19:08.614Z,42.95
2023-02-14T18:21:40.033Z,46.25
2023-02-14T18:24:08.430Z,46.75
2023-02-14T18:26:41.051Z,42.15
2023-02-14T18:29:08.916Z,44.70
2023-02-14T18:31:38.730Z,41.65
2023-02-14T18:34:06.219Z,44.90
2023-02-14T18:36:36.695Z,42.85
2023-02-14T18:39:06.093Z,44.03
2023-02-14T18:41:33.281Z,41.47
2023-02-14T18:44:04.209Z,42.40
2023-02-14T18:46:35.269Z,45.00
2023-02-14T18:49:06.066Z,43.03
2023-02-14T18:51:37.504Z,42.20
2023-02-14T18:54:05.277Z,43.45
2023-02-14T18:56:35.993Z,42.22
2023-02-14T18:59:07.651Z,41.55
2023-02-14T19:01:39.604Z,42.03
2023-02-14T19:04:12.100Z,41.92
2023-02-14T19:06:41.740Z,41.30
2023-02-14T19:09:16.226Z,44.60
2023-02-14T19:11:43.999Z,41.92
2023-02-14T19:14:12.957Z,42.03
2023-02-14T19:16:51.256Z,39.88
2023-02-14T19:19:18.593Z,45.47
2023-02-14T19:21:48.607Z,49.45
2023-02-14T19:24:17.408Z,44.47
2023-02-14T19:26:44.764Z,46.47
2023-02-14T19:29:17.937Z,45.17
2023-02-14T19:31:48.644Z,43.40
2023-02-14T19:34:17.215Z,43.15
2023-02-14T19:36:44.512Z,43.15
2023-02-14T19:39:12.674Z,41.22
2023-02-14T19:41:40.268Z,42.28
2023-02-14T19:44:10.059Z,42.22
2023-02-14T19:46:38.347Z,43.55
2023-02-14T19:49:05.854Z,42.90
2023-02-14T19:51:36.467Z,38.55
2023-02-14T19:54:07.183Z,40.33
2023-02-14T19:56:38.882Z,39.30
2023-02-14T19:59:10.034Z,38.78
2023-02-14T20:01:46.156Z,40.78
2023-02-14T20:04:18.218Z,40.70
2023-02-14T20:06:45.997Z,38.40
2023-02-14T20:09:14.172Z,44.55
2023-02-14T20:11:50.972Z,46.97
2023-02-14T20:14:26.500Z,46.38
2023-02-14T20:16:56.402Z,44.08
2023-02-14T20:19:27.901Z,45.35
2023-02-14T20:21:55.477Z,45.13
2023-02-14T20:24:27.400Z,46.45
2023-02-14T20:26:55.753Z,46.97
2023-02-14T20:29:24.773Z,48.28
2023-02-14T20:31:58.150Z,48.35
2023-02-14T20:34:26.658Z,48.33
2023-02-14T20:36:55.317Z,45.92
2023-02-14T20:39:28.538Z,47.47
2023-02-14T20:41:55.646Z,44.50
2023-02-14T20:44:22.970Z,47.25
2023-02-14T20:46:53.167Z,48.88
2023-02-14T20:49:22.166Z,48.13
2023-02-14T20:51:50.934Z,45.22
2023-02-14T20:54:24.026Z,44.83
2023-02-14T20:56:52.190Z,47.75
2023-02-14T20:59:26.933Z,44.10
2023-02-14T21:01:58.824Z,43.45
2023-02-14T21:04:26.897Z,44.92
2023-02-14T21:06:54.601Z,47.95
2023-02-14T21:09:21.708Z,45.97
2023-02-14T21:11:52.217Z,44.97
2023-02-14T21:14:20.883Z,46.35
2023-02-14T21:16:48.202Z,43.08
2023-02-14T21:19:15.401Z,46.20
2023-02-14T21:21:43.180Z,43.05
2023-02-14T21:24:16.840Z,43.75
2023-02-14T21:26:44.876Z,43.63
2023-02-14T21:29:12.101Z,44.05
2023-02-14T21:31:39.642Z,43.63
2023-02-14T21:34:06.826Z,42.30
2023-02-14T21:36:37.577Z,42.97
2023-02-14T21:39:06.632Z,43.78
2023-02-14T21:41:37.679Z,44.17
2023-02-14T21:44:06.829Z,41.13
2023-02-14T21:46:39.494Z,46.22
2023-02-14T21:49:25.767Z,46.03
2023-02-14T21:51:53.020Z,45.15
2023-02-14T21:54:27.072Z,44.47
2023-02-14T21:56:54.737Z,45.42
2023-02-14T21:59:22.109Z,46.55
2023-02-14T22:01:49.093Z,45.88
2023-02-14T22:04:16.298Z,46.80
2023-02-14T22:06:43.640Z,45.17
2023-02-14T22:09:13.887Z,47.33
2023-02-14T22:11:41.192Z,44.25
2023-02-14T22:14:08.529Z,46.90
2023-02-14T22:16:36.933Z,44.22
2023-02-14T22:19:05.714Z,43.88
2023-02-14T22:21:33.593Z,42.03
2023-02-14T22:24:01.341Z,44.25
2023-02-14T22:26:39.534Z,44.75
2023-02-14T22:29:09.964Z,44.95
2023-02-14T22:31:43.243Z,45.00
2023-02-14T22:34:14.087Z,46.00
2023-02-14T22:36:41.447Z,44.03
2023-02-14T22:39:09.513Z,48.60
2023-02-14T22:41:37.997Z,46.13
2023-02-14T22:44:06.187Z,46.53
2023-02-14T22:46:36.806Z,47.50
2023-02-14T22:49:05.502Z,43.10
2023-02-14T22:51:40.321Z,43.92
2023-02-14T22:54:15.005Z,44.30
2023-02-14T22:56:45.314Z,43.47
2023-02-14T22:59:28.332Z,45.53
2023-02-14T23:01:55.435Z,45.50
2023-02-14T23:04:24.992Z,46.92
2023-02-14T23:06:53.567Z,43.95
2023-02-14T23:09:20.694Z,45.33
2023-02-14T23:11:48.411Z,47.50
2023-02-14T23:14:35.703Z,44.53
2023-02-14T23:17:16.281Z,44.70
2023-02-14T23:20:03.536Z,48.03
2023-02-14T23:22:38.665Z,43.20
2023-02-14T23:25:10.698Z,46.53
2023-02-14T23:27:41.662Z,44.33
2023-02-14T23:30:15.335Z,45.90
2023-02-14T23:32:42.835Z,43.75
2023-02-14T23:35:10.390Z,45.75
2023-02-14T23:37:38.447Z,44.10
2023-02-14T23:40:07.013Z,43.90
2023-02-14T23:42:34.042Z,46.13
2023-02-14T23:45:21.208Z,47.65
2023-02-14T23:47:49.349Z,45.03
2023-02-14T23:50:16.889Z,48.85
2023-02-14T23:52:44.708Z,46.42
2023-02-14T23:55:12.902Z,46.67
2023-02-14T23:57:40.089Z,44.75
